sensor_id;sensor_type;location;lat;lon;timestamp;temperature;humidity
6462;DHT22;3264;42.862;25.098;2024-02-16T00:02:26;7.60;96.80
6462;DHT22;3264;42.862;25.098;2024-02-16T00:04:58;7.50;96.90
6462;DHT22;3264;42.862;25.098;2024-02-16T00:07:26;7.50;97.10
6462;DHT22;3264;42.862;25.098;2024-02-16T00:09:58;7.50;97.30
6462;DHT22;3264;42.862;25.098;2024-02-16T00:12:25;7.50;97.50
6462;DHT22;3264;42.862;25.098;2024-02-16T00:14:53;7.50;97.40
6462;DHT22;3264;42.862;25.098;2024-02-16T00:17:21;7.50;97.40
6462;DHT22;3264;42.862;25.098;2024-02-16T00:19:52;7.50;97.30
6462;DHT22;3264;42.862;25.098;2024-02-16T00:22:28;7.40;97.20
6462;DHT22;3264;42.862;25.098;2024-02-16T00:24:59;7.40;97.30
6462;DHT22;3264;42.862;25.098;2024-02-16T00:27:31;7.40;97.20
6462;DHT22;3264;42.862;25.098;2024-02-16T00:29:58;7.40;97.10
6462;DHT22;3264;42.862;25.098;2024-02-16T00:32:30;7.40;97.20
6462;DHT22;3264;42.862;25.098;2024-02-16T00:34:57;7.40;97.10
6462;DHT22;3264;42.862;25.098;2024-02-16T00:37:25;7.40;97.20
6462;DHT22;3264;42.862;25.098;2024-02-16T00:39:53;7.40;97.30
6462;DHT22;3264;42.862;25.098;2024-02-16T00:42:27;7.40;97.40
6462;DHT22;3264;42.862;25.098;2024-02-16T00:44:58;7.40;97.40
6462;DHT22;3264;42.862;25.098;2024-02-16T00:47:26;7.40;97.40
6462;DHT22;3264;42.862;25.098;2024-02-16T00:49:54;7.40;97.50
6462;DHT22;3264;42.862;25.098;2024-02-16T00:52:22;7.40;97.40
6462;DHT22;3264;42.862;25.098;2024-02-16T00:55:04;7.40;97.30
6462;DHT22;3264;42.862;25.098;2024-02-16T00:57:40;7.40;97.20
6462;DHT22;3264;42.862;25.098;2024-02-16T01:00:14;7.50;97.20
6462;DHT22;3264;42.862;25.098;2024-02-16T01:02:42;7.40;97.20
6462;DHT22;3264;42.862;25.098;2024-02-16T01:05:13;7.40;97.10
6462;DHT22;3264;42.862;25.098;2024-02-16T01:07:43;7.50;97.20
6462;DHT22;3264;42.862;25.098;2024-02-16T01:10:14;7.50;97.20
6462;DHT22;3264;42.862;25.098;2024-02-16T01:12:43;7.50;97.20
6462;DHT22;3264;42.862;25.098;2024-02-16T01:15:13;7.50;97.20
6462;DHT22;3264;42.862;25.098;2024-02-16T01:17:44;7.50;97.30
6462;DHT22;3264;42.862;25.098;2024-02-16T01:20:12;7.50;97.50
6462;DHT22;3264;42.862;25.098;2024-02-16T01:22:42;7.50;97.70
6462;DHT22;3264;42.862;25.098;2024-02-16T01:25:16;7.50;97.60
6462;DHT22;3264;42.862;25.098;2024-02-16T01:27:47;7.50;97.40
6462;DHT22;3264;42.862;25.098;2024-02-16T01:30:16;7.50;97.50
6462;DHT22;3264;42.862;25.098;2024-02-16T01:32:46;7.50;97.50
6462;DHT22;3264;42.862;25.098;2024-02-16T01:35:28;7.50;97.60
6462;DHT22;3264;42.862;25.098;2024-02-16T01:37:55;7.50;97.70
6462;DHT22;3264;42.862;25.098;2024-02-16T01:40:23;7.40;97.70
6462;DHT22;3264;42.862;25.098;2024-02-16T01:42:54;7.40;97.70
6462;DHT22;3264;42.862;25.098;2024-02-16T01:45:22;7.40;97.70
6462;DHT22;3264;42.862;25.098;2024-02-16T01:47:53;7.40;97.80
6462;DHT22;3264;42.862;25.098;2024-02-16T01:50:27;7.40;97.80
6462;DHT22;3264;42.862;25.098;2024-02-16T01:52:56;7.40;97.80
6462;DHT22;3264;42.862;25.098;2024-02-16T01:55:24;7.50;97.70
6462;DHT22;3264;42.862;25.098;2024-02-16T01:57:55;7.50;97.50
6462;DHT22;3264;42.862;25.098;2024-02-16T02:00:24;7.40;97.30
6462;DHT22;3264;42.862;25.098;2024-02-16T02:02:52;7.40;97.40
6462;DHT22;3264;42.862;25.098;2024-02-16T02:05:20;7.40;97.40
6462;DHT22;3264;42.862;25.098;2024-02-16T02:07:47;7.40;97.50
6462;DHT22;3264;42.862;25.098;2024-02-16T02:10:16;7.40;97.40
6462;DHT22;3264;42.862;25.098;2024-02-16T02:12:45;7.40;97.40
6462;DHT22;3264;42.862;25.098;2024-02-16T02:15:14;7.40;97.30
6462;DHT22;3264;42.862;25.098;2024-02-16T02:17:43;7.40;97.30
6462;DHT22;3264;42.862;25.098;2024-02-16T02:20:11;7.30;97.70
6462;DHT22;3264;42.862;25.098;2024-02-16T02:22:40;7.30;98.20
6462;DHT22;3264;42.862;25.098;2024-02-16T02:25:09;7.30;98.50
6462;DHT22;3264;42.862;25.098;2024-02-16T02:27:38;7.20;98.60
6462;DHT22;3264;42.862;25.098;2024-02-16T02:30:07;7.20;98.60
6462;DHT22;3264;42.862;25.098;2024-02-16T02:32:35;7.20;98.70
6462;DHT22;3264;42.862;25.098;2024-02-16T02:35:05;7.30;98.80
6462;DHT22;3264;42.862;25.098;2024-02-16T02:37:35;7.30;98.70
6462;DHT22;3264;42.862;25.098;2024-02-16T02:40:08;7.20;98.70
6462;DHT22;3264;42.862;25.098;2024-02-16T02:42:37;7.30;98.90
6462;DHT22;3264;42.862;25.098;2024-02-16T02:45:06;7.30;98.40
6462;DHT22;3264;42.862;25.098;2024-02-16T02:47:35;7.30;98.50
6462;DHT22;3264;42.862;25.098;2024-02-16T02:50:05;7.30;98.60
6462;DHT22;3264;42.862;25.098;2024-02-16T02:52:32;7.20;98.70
6462;DHT22;3264;42.862;25.098;2024-02-16T02:55:00;7.30;98.90
6462;DHT22;3264;42.862;25.098;2024-02-16T02:57:30;7.20;98.90
6462;DHT22;3264;42.862;25.098;2024-02-16T03:00:04;7.20;98.90
6462;DHT22;3264;42.862;25.098;2024-02-16T03:02:36;7.20;98.90
6462;DHT22;3264;42.862;25.098;2024-02-16T03:05:06;7.20;99.00
6462;DHT22;3264;42.862;25.098;2024-02-16T03:07:35;7.20;99.00
6462;DHT22;3264;42.862;25.098;2024-02-16T03:10:04;7.20;98.90
6462;DHT22;3264;42.862;25.098;2024-02-16T03:12:36;7.20;98.90
6462;DHT22;3264;42.862;25.098;2024-02-16T03:15:05;7.20;98.90
6462;DHT22;3264;42.862;25.098;2024-02-16T03:17:34;7.20;98.90
6462;DHT22;3264;42.862;25.098;2024-02-16T03:20:03;7.20;98.90
6462;DHT22;3264;42.862;25.098;2024-02-16T03:22:31;7.20;98.80
6462;DHT22;3264;42.862;25.098;2024-02-16T03:24:58;7.20;98.80
6462;DHT22;3264;42.862;25.098;2024-02-16T03:27:27;7.20;98.90
6462;DHT22;3264;42.862;25.098;2024-02-16T03:29:57;7.20;98.80
6462;DHT22;3264;42.862;25.098;2024-02-16T03:32:26;7.20;98.60
6462;DHT22;3264;42.862;25.098;2024-02-16T03:34:57;7.20;98.70
6462;DHT22;3264;42.862;25.098;2024-02-16T03:37:25;7.20;98.80
6462;DHT22;3264;42.862;25.098;2024-02-16T03:39:54;7.10;98.80
6462;DHT22;3264;42.862;25.098;2024-02-16T03:42:22;7.10;99.00
6462;DHT22;3264;42.862;25.098;2024-02-16T03:44:50;7.10;99.10
6462;DHT22;3264;42.862;25.098;2024-02-16T03:47:19;7.20;99.00
6462;DHT22;3264;42.862;25.098;2024-02-16T03:49:48;7.20;98.80
6462;DHT22;3264;42.862;25.098;2024-02-16T03:52:16;7.20;98.80
6462;DHT22;3264;42.862;25.098;2024-02-16T03:54:45;7.20;98.80
6462;DHT22;3264;42.862;25.098;2024-02-16T03:57:18;7.20;98.80
6462;DHT22;3264;42.862;25.098;2024-02-16T03:59:46;7.20;98.80
6462;DHT22;3264;42.862;25.098;2024-02-16T04:02:33;7.20;98.80
6462;DHT22;3264;42.862;25.098;2024-02-16T04:05:03;7.30;98.60
6462;DHT22;3264;42.862;25.098;2024-02-16T04:07:31;7.20;98.40
6462;DHT22;3264;42.862;25.098;2024-02-16T04:09:59;7.20;98.40
6462;DHT22;3264;42.862;25.098;2024-02-16T04:12:28;7.20;98.50
6462;DHT22;3264;42.862;25.098;2024-02-16T04:14:56;7.20;98.50
6462;DHT22;3264;42.862;25.098;2024-02-16T04:17:25;7.20;98.60
6462;DHT22;3264;42.862;25.098;2024-02-16T04:19:55;7.10;98.60
6462;DHT22;3264;42.862;25.098;2024-02-16T04:22:24;7.10;98.70
6462;DHT22;3264;42.862;25.098;2024-02-16T04:24:53;7.10;98.70
6462;DHT22;3264;42.862;25.098;2024-02-16T04:27:21;7.10;98.80
6462;DHT22;3264;42.862;25.098;2024-02-16T04:29:50;7.10;98.80
6462;DHT22;3264;42.862;25.098;2024-02-16T04:32:18;7.10;98.90
6462;DHT22;3264;42.862;25.098;2024-02-16T04:34:46;7.10;99.00
6462;DHT22;3264;42.862;25.098;2024-02-16T04:37:15;7.10;99.00
6462;DHT22;3264;42.862;25.098;2024-02-16T04:39:45;7.00;99.00
6462;DHT22;3264;42.862;25.098;2024-02-16T04:42:14;7.10;99.00
6462;DHT22;3264;42.862;25.098;2024-02-16T04:44:42;7.10;99.10
6462;DHT22;3264;42.862;25.098;2024-02-16T04:47:10;7.10;99.20
6462;DHT22;3264;42.862;25.098;2024-02-16T04:49:39;7.10;99.20
6462;DHT22;3264;42.862;25.098;2024-02-16T04:52:07;7.10;99.30
6462;DHT22;3264;42.862;25.098;2024-02-16T04:54:37;7.10;99.20
6462;DHT22;3264;42.862;25.098;2024-02-16T04:57:07;7.10;99.20
6462;DHT22;3264;42.862;25.098;2024-02-16T04:59:34;7.10;99.30
6462;DHT22;3264;42.862;25.098;2024-02-16T05:02:03;7.10;99.50
6462;DHT22;3264;42.862;25.098;2024-02-16T05:04:33;7.00;99.70
6462;DHT22;3264;42.862;25.098;2024-02-16T05:07:02;7.00;99.90
6462;DHT22;3264;42.862;25.098;2024-02-16T05:09:32;7.00;99.90
6462;DHT22;3264;42.862;25.098;2024-02-16T05:12:01;7.00;99.90
6462;DHT22;3264;42.862;25.098;2024-02-16T05:14:29;7.00;99.80
6462;DHT22;3264;42.862;25.098;2024-02-16T05:16:57;7.00;99.70
6462;DHT22;3264;42.862;25.098;2024-02-16T05:19:25;7.00;99.80
6462;DHT22;3264;42.862;25.098;2024-02-16T05:21:53;7.00;99.80
6462;DHT22;3264;42.862;25.098;2024-02-16T05:24:21;7.00;99.90
6462;DHT22;3264;42.862;25.098;2024-02-16T05:26:49;7.00;99.70
6462;DHT22;3264;42.862;25.098;2024-02-16T05:29:19;7.00;99.60
6462;DHT22;3264;42.862;25.098;2024-02-16T05:31:51;7.00;99.70
6462;DHT22;3264;42.862;25.098;2024-02-16T05:34:19;7.10;99.80
6462;DHT22;3264;42.862;25.098;2024-02-16T05:36:47;7.10;99.70
6462;DHT22;3264;42.862;25.098;2024-02-16T05:39:15;7.10;99.80
6462;DHT22;3264;42.862;25.098;2024-02-16T05:41:53;7.10;99.80
6462;DHT22;3264;42.862;25.098;2024-02-16T05:44:22;7.10;99.70
6462;DHT22;3264;42.862;25.098;2024-02-16T05:46:50;7.10;99.60
6462;DHT22;3264;42.862;25.098;2024-02-16T05:49:17;7.10;99.60
6462;DHT22;3264;42.862;25.098;2024-02-16T05:51:46;7.10;99.60
6462;DHT22;3264;42.862;25.098;2024-02-16T05:54:43;7.10;99.60
6462;DHT22;3264;42.862;25.098;2024-02-16T05:57:11;7.20;99.70
6462;DHT22;3264;42.862;25.098;2024-02-16T05:59:42;7.20;99.60
6462;DHT22;3264;42.862;25.098;2024-02-16T06:02:13;7.10;99.70
6462;DHT22;3264;42.862;25.098;2024-02-16T06:04:42;7.20;99.80
6462;DHT22;3264;42.862;25.098;2024-02-16T06:07:09;7.20;99.90
6462;DHT22;3264;42.862;25.098;2024-02-16T06:09:37;7.20;99.90
6462;DHT22;3264;42.862;25.098;2024-02-16T06:12:07;7.20;99.90
6462;DHT22;3264;42.862;25.098;2024-02-16T06:14:36;7.20;99.90
6462;DHT22;3264;42.862;25.098;2024-02-16T06:17:05;7.20;99.70
6462;DHT22;3264;42.862;25.098;2024-02-16T06:19:34;7.20;99.50
6462;DHT22;3264;42.862;25.098;2024-02-16T06:22:03;7.20;99.50
6462;DHT22;3264;42.862;25.098;2024-02-16T06:24:31;7.20;99.30
6462;DHT22;3264;42.862;25.098;2024-02-16T06:26:59;7.20;99.30
6462;DHT22;3264;42.862;25.098;2024-02-16T06:29:28;7.30;99.50
6462;DHT22;3264;42.862;25.098;2024-02-16T06:31:56;7.30;99.80
6462;DHT22;3264;42.862;25.098;2024-02-16T06:34:27;7.40;99.90
6462;DHT22;3264;42.862;25.098;2024-02-16T06:36:55;7.40;99.70
6462;DHT22;3264;42.862;25.098;2024-02-16T06:39:24;7.40;99.30
6462;DHT22;3264;42.862;25.098;2024-02-16T06:41:52;7.40;99.40
6462;DHT22;3264;42.862;25.098;2024-02-16T06:44:21;7.50;99.60
6462;DHT22;3264;42.862;25.098;2024-02-16T06:46:48;7.50;99.90
6462;DHT22;3264;42.862;25.098;2024-02-16T06:49:16;7.60;99.60
6462;DHT22;3264;42.862;25.098;2024-02-16T06:51:45;7.60;99.40
6462;DHT22;3264;42.862;25.098;2024-02-16T06:54:13;7.70;99.40
6462;DHT22;3264;42.862;25.098;2024-02-16T06:56:42;7.70;99.40
6462;DHT22;3264;42.862;25.098;2024-02-16T06:59:11;7.70;99.40
6462;DHT22;3264;42.862;25.098;2024-02-16T07:01:39;7.70;99.40
6462;DHT22;3264;42.862;25.098;2024-02-16T07:04:08;7.70;99.30
6462;DHT22;3264;42.862;25.098;2024-02-16T07:06:36;7.80;99.50
6462;DHT22;3264;42.862;25.098;2024-02-16T07:09:06;7.80;99.50
6462;DHT22;3264;42.862;25.098;2024-02-16T07:11:34;7.90;99.20
6462;DHT22;3264;42.862;25.098;2024-02-16T07:14:02;7.90;98.50
6462;DHT22;3264;42.862;25.098;2024-02-16T07:16:32;7.90;98.50
6462;DHT22;3264;42.862;25.098;2024-02-16T07:19:00;7.90;98.40
6462;DHT22;3264;42.862;25.098;2024-02-16T07:21:28;7.90;98.30
6462;DHT22;3264;42.862;25.098;2024-02-16T07:23:55;7.90;98.30
6462;DHT22;3264;42.862;25.098;2024-02-16T07:26:25;8.00;98.30
6462;DHT22;3264;42.862;25.098;2024-02-16T07:28:54;8.00;98.30
6462;DHT22;3264;42.862;25.098;2024-02-16T07:31:21;8.10;98.30
6462;DHT22;3264;42.862;25.098;2024-02-16T07:33:49;8.20;98.30
6462;DHT22;3264;42.862;25.098;2024-02-16T07:36:17;8.20;98.00
6462;DHT22;3264;42.862;25.098;2024-02-16T07:38:45;8.20;97.50
6462;DHT22;3264;42.862;25.098;2024-02-16T07:41:14;8.20;97.30
6462;DHT22;3264;42.862;25.098;2024-02-16T07:43:44;8.30;97.10
6462;DHT22;3264;42.862;25.098;2024-02-16T07:46:12;8.30;97.20
6462;DHT22;3264;42.862;25.098;2024-02-16T07:48:41;8.30;97.40
6462;DHT22;3264;42.862;25.098;2024-02-16T07:51:10;8.40;97.30
6462;DHT22;3264;42.862;25.098;2024-02-16T07:53:37;8.40;97.20
6462;DHT22;3264;42.862;25.098;2024-02-16T07:56:08;8.40;97.10
6462;DHT22;3264;42.862;25.098;2024-02-16T07:58:35;8.40;97.10
6462;DHT22;3264;42.862;25.098;2024-02-16T08:01:06;8.40;96.80
6462;DHT22;3264;42.862;25.098;2024-02-16T08:03:34;8.50;96.50
6462;DHT22;3264;42.862;25.098;2024-02-16T08:06:02;8.50;96.40
6462;DHT22;3264;42.862;25.098;2024-02-16T08:08:30;8.50;96.20
6462;DHT22;3264;42.862;25.098;2024-02-16T08:10:59;8.50;95.90
6462;DHT22;3264;42.862;25.098;2024-02-16T08:13:27;8.60;95.90
6462;DHT22;3264;42.862;25.098;2024-02-16T08:15:54;8.70;95.50
6462;DHT22;3264;42.862;25.098;2024-02-16T08:18:25;8.80;94.90
6462;DHT22;3264;42.862;25.098;2024-02-16T08:20:53;8.80;94.70
6462;DHT22;3264;42.862;25.098;2024-02-16T08:23:20;8.90;94.80
6462;DHT22;3264;42.862;25.098;2024-02-16T08:25:49;9.00;94.70
6462;DHT22;3264;42.862;25.098;2024-02-16T08:28:17;9.00;94.60
6462;DHT22;3264;42.862;25.098;2024-02-16T08:30:46;9.20;94.90
6462;DHT22;3264;42.862;25.098;2024-02-16T08:33:14;9.20;94.70
6462;DHT22;3264;42.862;25.098;2024-02-16T08:35:44;9.30;94.30
6462;DHT22;3264;42.862;25.098;2024-02-16T08:38:12;9.40;93.80
6462;DHT22;3264;42.862;25.098;2024-02-16T08:40:40;9.30;93.40
6462;DHT22;3264;42.862;25.098;2024-02-16T08:43:08;9.30;93.00
6462;DHT22;3264;42.862;25.098;2024-02-16T08:45:35;9.50;92.60
6462;DHT22;3264;42.862;25.098;2024-02-16T08:48:03;9.50;91.60
6462;DHT22;3264;42.862;25.098;2024-02-16T08:50:32;9.60;91.60
6462;DHT22;3264;42.862;25.098;2024-02-16T08:53:02;9.60;91.50
6462;DHT22;3264;42.862;25.098;2024-02-16T08:55:30;9.60;90.60
6462;DHT22;3264;42.862;25.098;2024-02-16T08:57:59;9.60;90.70
6462;DHT22;3264;42.862;25.098;2024-02-16T09:00:27;9.60;90.80
6462;DHT22;3264;42.862;25.098;2024-02-16T09:02:55;9.70;90.70
6462;DHT22;3264;42.862;25.098;2024-02-16T09:05:24;9.80;90.30
6462;DHT22;3264;42.862;25.098;2024-02-16T09:07:52;9.80;90.60
6462;DHT22;3264;42.862;25.098;2024-02-16T09:10:21;9.80;90.70
6462;DHT22;3264;42.862;25.098;2024-02-16T09:12:49;9.90;90.70
6462;DHT22;3264;42.862;25.098;2024-02-16T09:15:18;9.90;89.70
6462;DHT22;3264;42.862;25.098;2024-02-16T09:17:45;10.00;88.10
6462;DHT22;3264;42.862;25.098;2024-02-16T09:20:14;10.00;87.60
6462;DHT22;3264;42.862;25.098;2024-02-16T09:22:42;10.10;87.40
6462;DHT22;3264;42.862;25.098;2024-02-16T09:25:13;10.20;87.20
6462;DHT22;3264;42.862;25.098;2024-02-16T09:27:42;10.30;86.40
6462;DHT22;3264;42.862;25.098;2024-02-16T09:30:11;10.50;86.80
6462;DHT22;3264;42.862;25.098;2024-02-16T09:32:40;10.60;87.50
6462;DHT22;3264;42.862;25.098;2024-02-16T09:35:08;10.70;87.40
6462;DHT22;3264;42.862;25.098;2024-02-16T09:37:38;10.80;87.10
6462;DHT22;3264;42.862;25.098;2024-02-16T09:40:07;10.80;85.50
6462;DHT22;3264;42.862;25.098;2024-02-16T09:42:38;10.70;86.80
6462;DHT22;3264;42.862;25.098;2024-02-16T09:45:08;10.60;87.40
6462;DHT22;3264;42.862;25.098;2024-02-16T09:47:39;10.60;86.10
6462;DHT22;3264;42.862;25.098;2024-02-16T09:50:10;10.60;85.80
6462;DHT22;3264;42.862;25.098;2024-02-16T09:52:39;10.50;86.50
6462;DHT22;3264;42.862;25.098;2024-02-16T09:55:11;10.50;86.10
6462;DHT22;3264;42.862;25.098;2024-02-16T09:57:40;10.50;86.20
6462;DHT22;3264;42.862;25.098;2024-02-16T10:00:13;10.60;86.60
6462;DHT22;3264;42.862;25.098;2024-02-16T10:02:41;10.50;86.70
6462;DHT22;3264;42.862;25.098;2024-02-16T10:05:14;10.60;86.90
6462;DHT22;3264;42.862;25.098;2024-02-16T10:07:44;10.60;86.40
6462;DHT22;3264;42.862;25.098;2024-02-16T10:10:21;10.70;86.40
6462;DHT22;3264;42.862;25.098;2024-02-16T10:12:49;10.70;85.40
6462;DHT22;3264;42.862;25.098;2024-02-16T10:15:23;10.80;85.10
6462;DHT22;3264;42.862;25.098;2024-02-16T10:18:01;10.80;84.60
6462;DHT22;3264;42.862;25.098;2024-02-16T10:20:29;10.70;84.00
6462;DHT22;3264;42.862;25.098;2024-02-16T10:23:05;10.60;84.20
6462;DHT22;3264;42.862;25.098;2024-02-16T10:25:32;10.70;85.00
6462;DHT22;3264;42.862;25.098;2024-02-16T10:28:06;10.70;82.90
6462;DHT22;3264;42.862;25.098;2024-02-16T10:30:37;10.60;80.80
6462;DHT22;3264;42.862;25.098;2024-02-16T10:33:06;10.60;79.30
6462;DHT22;3264;42.862;25.098;2024-02-16T10:35:34;10.60;80.50
6462;DHT22;3264;42.862;25.098;2024-02-16T10:38:04;10.70;81.40
6462;DHT22;3264;42.862;25.098;2024-02-16T10:40:33;10.80;81.10
6462;DHT22;3264;42.862;25.098;2024-02-16T10:43:04;10.90;81.40
6462;DHT22;3264;42.862;25.098;2024-02-16T10:45:34;11.00;80.80
6462;DHT22;3264;42.862;25.098;2024-02-16T10:48:06;11.00;80.40
6462;DHT22;3264;42.862;25.098;2024-02-16T10:50:35;11.00;80.90
6462;DHT22;3264;42.862;25.098;2024-02-16T10:53:14;11.10;79.50
6462;DHT22;3264;42.862;25.098;2024-02-16T10:55:45;11.10;78.50
6462;DHT22;3264;42.862;25.098;2024-02-16T10:58:14;11.10;77.20
6462;DHT22;3264;42.862;25.098;2024-02-16T11:00:51;11.10;77.90
6462;DHT22;3264;42.862;25.098;2024-02-16T11:03:24;11.10;75.00
6462;DHT22;3264;42.862;25.098;2024-02-16T11:05:53;11.00;74.10
6462;DHT22;3264;42.862;25.098;2024-02-16T11:08:24;11.00;74.60
6462;DHT22;3264;42.862;25.098;2024-02-16T11:10:57;10.80;73.00
6462;DHT22;3264;42.862;25.098;2024-02-16T11:13:27;10.80;74.00
6462;DHT22;3264;42.862;25.098;2024-02-16T11:15:58;10.90;74.70
6462;DHT22;3264;42.862;25.098;2024-02-16T11:18:30;10.90;73.30
6462;DHT22;3264;42.862;25.098;2024-02-16T11:21:00;10.90;73.10
6462;DHT22;3264;42.862;25.098;2024-02-16T11:23:30;10.90;71.90
6462;DHT22;3264;42.862;25.098;2024-02-16T11:26:01;11.00;73.40
6462;DHT22;3264;42.862;25.098;2024-02-16T11:28:31;11.00;73.40
6462;DHT22;3264;42.862;25.098;2024-02-16T11:31:01;11.10;74.30
6462;DHT22;3264;42.862;25.098;2024-02-16T11:33:30;11.30;74.90
6462;DHT22;3264;42.862;25.098;2024-02-16T11:36:00;11.30;74.00
6462;DHT22;3264;42.862;25.098;2024-02-16T11:38:32;11.30;72.30
6462;DHT22;3264;42.862;25.098;2024-02-16T11:41:02;11.30;72.80
6462;DHT22;3264;42.862;25.098;2024-02-16T11:43:31;11.30;73.10
6462;DHT22;3264;42.862;25.098;2024-02-16T11:45:58;11.40;73.70
6462;DHT22;3264;42.862;25.098;2024-02-16T11:48:31;11.30;72.70
6462;DHT22;3264;42.862;25.098;2024-02-16T11:51:00;11.40;72.80
6462;DHT22;3264;42.862;25.098;2024-02-16T11:53:28;11.40;72.60
6462;DHT22;3264;42.862;25.098;2024-02-16T11:55:57;11.40;72.90
6462;DHT22;3264;42.862;25.098;2024-02-16T11:58:26;11.50;73.40
6462;DHT22;3264;42.862;25.098;2024-02-16T12:00:55;11.40;71.40
6462;DHT22;3264;42.862;25.098;2024-02-16T12:03:26;11.40;71.30
6462;DHT22;3264;42.862;25.098;2024-02-16T12:05:56;11.40;72.10
6462;DHT22;3264;42.862;25.098;2024-02-16T12:08:32;11.40;73.20
6462;DHT22;3264;42.862;25.098;2024-02-16T12:11:01;11.50;72.30
6462;DHT22;3264;42.862;25.098;2024-02-16T12:13:30;11.50;72.00
6462;DHT22;3264;42.862;25.098;2024-02-16T12:15:58;11.60;73.30
6462;DHT22;3264;42.862;25.098;2024-02-16T12:18:27;11.60;71.50
6462;DHT22;3264;42.862;25.098;2024-02-16T12:21:01;11.60;71.10
6462;DHT22;3264;42.862;25.098;2024-02-16T12:23:30;11.70;72.10
6462;DHT22;3264;42.862;25.098;2024-02-16T12:25:59;11.80;72.30
6462;DHT22;3264;42.862;25.098;2024-02-16T12:28:28;11.80;71.00
6462;DHT22;3264;42.862;25.098;2024-02-16T12:30:59;11.70;70.30
6462;DHT22;3264;42.862;25.098;2024-02-16T12:33:27;11.70;69.80
6462;DHT22;3264;42.862;25.098;2024-02-16T12:35:54;11.70;69.10
6462;DHT22;3264;42.862;25.098;2024-02-16T12:38:25;11.70;68.60
6462;DHT22;3264;42.862;25.098;2024-02-16T12:40:54;11.50;69.20
6462;DHT22;3264;42.862;25.098;2024-02-16T12:43:21;11.50;69.20
6462;DHT22;3264;42.862;25.098;2024-02-16T12:45:49;11.50;70.60
6462;DHT22;3264;42.862;25.098;2024-02-16T12:48:18;11.60;69.20
6462;DHT22;3264;42.862;25.098;2024-02-16T12:50:46;11.50;69.10
6462;DHT22;3264;42.862;25.098;2024-02-16T12:53:15;11.40;68.50
6462;DHT22;3264;42.862;25.098;2024-02-16T12:55:44;11.30;68.80
6462;DHT22;3264;42.862;25.098;2024-02-16T12:58:12;11.30;69.00
6462;DHT22;3264;42.862;25.098;2024-02-16T13:00:40;11.30;69.10
6462;DHT22;3264;42.862;25.098;2024-02-16T13:03:08;11.40;69.70
6462;DHT22;3264;42.862;25.098;2024-02-16T13:05:36;11.40;70.60
6462;DHT22;3264;42.862;25.098;2024-02-16T13:08:06;11.50;70.20
6462;DHT22;3264;42.862;25.098;2024-02-16T13:10:34;11.60;71.40
6462;DHT22;3264;42.862;25.098;2024-02-16T13:13:04;11.70;70.90
6462;DHT22;3264;42.862;25.098;2024-02-16T13:15:33;11.60;69.00
6462;DHT22;3264;42.862;25.098;2024-02-16T13:18:01;11.60;70.00
6462;DHT22;3264;42.862;25.098;2024-02-16T13:20:30;11.70;70.40
6462;DHT22;3264;42.862;25.098;2024-02-16T13:22:57;11.70;70.30
6462;DHT22;3264;42.862;25.098;2024-02-16T13:25:25;11.70;69.80
6462;DHT22;3264;42.862;25.098;2024-02-16T13:27:54;11.60;70.00
6462;DHT22;3264;42.862;25.098;2024-02-16T13:30:24;11.60;68.50
6462;DHT22;3264;42.862;25.098;2024-02-16T13:32:53;11.50;69.40
6462;DHT22;3264;42.862;25.098;2024-02-16T13:35:22;11.40;68.30
6462;DHT22;3264;42.862;25.098;2024-02-16T13:37:50;11.40;68.80
6462;DHT22;3264;42.862;25.098;2024-02-16T13:40:18;11.40;69.10
6462;DHT22;3264;42.862;25.098;2024-02-16T13:42:47;11.50;68.50
6462;DHT22;3264;42.862;25.098;2024-02-16T13:45:15;11.50;68.60
6462;DHT22;3264;42.862;25.098;2024-02-16T13:47:45;11.50;67.50
6462;DHT22;3264;42.862;25.098;2024-02-16T13:50:13;11.60;69.10
6462;DHT22;3264;42.862;25.098;2024-02-16T13:52:42;11.60;69.40
6462;DHT22;3264;42.862;25.098;2024-02-16T13:55:10;11.70;68.10
6462;DHT22;3264;42.862;25.098;2024-02-16T13:57:39;11.70;67.60
6462;DHT22;3264;42.862;25.098;2024-02-16T14:00:08;11.70;68.30
6462;DHT22;3264;42.862;25.098;2024-02-16T14:02:43;11.80;68.70
6462;DHT22;3264;42.862;25.098;2024-02-16T14:05:11;11.80;68.90
6462;DHT22;3264;42.862;25.098;2024-02-16T14:07:40;11.90;69.20
6462;DHT22;3264;42.862;25.098;2024-02-16T14:10:08;11.90;69.40
6462;DHT22;3264;42.862;25.098;2024-02-16T14:12:36;12.00;69.50
6462;DHT22;3264;42.862;25.098;2024-02-16T14:15:05;11.90;68.50
6462;DHT22;3264;42.862;25.098;2024-02-16T14:17:33;11.80;68.20
6462;DHT22;3264;42.862;25.098;2024-02-16T14:20:03;11.70;68.10
6462;DHT22;3264;42.862;25.098;2024-02-16T14:22:32;11.60;68.00
6462;DHT22;3264;42.862;25.098;2024-02-16T14:25:00;11.60;68.20
6462;DHT22;3264;42.862;25.098;2024-02-16T14:27:29;11.50;67.90
6462;DHT22;3264;42.862;25.098;2024-02-16T14:29:58;11.50;68.70
6462;DHT22;3264;42.862;25.098;2024-02-16T14:32:26;11.50;68.90
6462;DHT22;3264;42.862;25.098;2024-02-16T14:34:54;11.40;68.70
6462;DHT22;3264;42.862;25.098;2024-02-16T14:37:23;11.40;67.80
6462;DHT22;3264;42.862;25.098;2024-02-16T14:39:51;11.40;68.00
6462;DHT22;3264;42.862;25.098;2024-02-16T14:42:23;11.40;68.60
6462;DHT22;3264;42.862;25.098;2024-02-16T14:44:52;11.40;68.90
6462;DHT22;3264;42.862;25.098;2024-02-16T14:47:20;11.40;69.10
6462;DHT22;3264;42.862;25.098;2024-02-16T14:49:50;11.50;69.50
6462;DHT22;3264;42.862;25.098;2024-02-16T14:52:18;11.60;69.10
6462;DHT22;3264;42.862;25.098;2024-02-16T14:54:48;11.60;70.90
6462;DHT22;3264;42.862;25.098;2024-02-16T14:57:16;11.60;70.40
6462;DHT22;3264;42.862;25.098;2024-02-16T14:59:46;11.70;68.80
6462;DHT22;3264;42.862;25.098;2024-02-16T15:02:16;11.70;67.50
6462;DHT22;3264;42.862;25.098;2024-02-16T15:04:46;11.80;68.00
6462;DHT22;3264;42.862;25.098;2024-02-16T15:07:16;11.80;67.80
6462;DHT22;3264;42.862;25.098;2024-02-16T15:09:44;11.90;68.90
6462;DHT22;3264;42.862;25.098;2024-02-16T15:12:14;11.90;68.20
6462;DHT22;3264;42.862;25.098;2024-02-16T15:14:44;11.90;68.30
6462;DHT22;3264;42.862;25.098;2024-02-16T15:17:12;11.90;67.60
6462;DHT22;3264;42.862;25.098;2024-02-16T15:19:40;11.80;68.30
6462;DHT22;3264;42.862;25.098;2024-02-16T15:22:08;11.70;67.20
6462;DHT22;3264;42.862;25.098;2024-02-16T15:24:35;11.60;67.20
6462;DHT22;3264;42.862;25.098;2024-02-16T15:27:04;11.60;68.30
6462;DHT22;3264;42.862;25.098;2024-02-16T15:29:33;11.50;68.70
6462;DHT22;3264;42.862;25.098;2024-02-16T15:32:01;11.40;68.20
6462;DHT22;3264;42.862;25.098;2024-02-16T15:34:29;11.30;68.90
6462;DHT22;3264;42.862;25.098;2024-02-16T15:36:57;11.30;69.60
6462;DHT22;3264;42.862;25.098;2024-02-16T15:39:25;11.20;69.40
6462;DHT22;3264;42.862;25.098;2024-02-16T15:41:53;11.20;70.30
6462;DHT22;3264;42.862;25.098;2024-02-16T15:44:22;11.10;70.40
6462;DHT22;3264;42.862;25.098;2024-02-16T15:46:51;11.10;70.30
6462;DHT22;3264;42.862;25.098;2024-02-16T15:49:18;11.00;70.00
6462;DHT22;3264;42.862;25.098;2024-02-16T15:51:46;10.90;70.00
6462;DHT22;3264;42.862;25.098;2024-02-16T15:54:14;10.80;70.10
6462;DHT22;3264;42.862;25.098;2024-02-16T15:56:41;10.70;70.50
6462;DHT22;3264;42.862;25.098;2024-02-16T15:59:10;10.60;71.00
6462;DHT22;3264;42.862;25.098;2024-02-16T16:01:37;10.50;70.80
6462;DHT22;3264;42.862;25.098;2024-02-16T16:04:08;10.50;71.10
6462;DHT22;3264;42.862;25.098;2024-02-16T16:06:36;10.40;71.10
6462;DHT22;3264;42.862;25.098;2024-02-16T16:09:05;10.30;71.30